www.cux-wetter.de
Wetterdaten: Donnerstag, 11.12.2008
Datum Zeit Temp. A. Feuchte A. Luftdruck Regen Wind Richtung Richtung Sonnenschein Solar Taupunkt Windchill Windben
11.12.2008 00:00 2,0 C 95 % 1011,5 hPa 0,0 l/m 15,0 km/h (3 Bft) S-SO 165 0 min 0 W/m 1,3 C -4,6 C 15,0 km/h (3 Bft)
11.12.2008 00:05 2,0 C 95 % 1011,5 hPa 0,0 l/m 9,2 km/h (2 Bft) S-SO 155 0 min 0 W/m 1,3 C -0,6 C 9,2 km/h (2 Bft)
11.12.2008 00:09 2,0 C 95 % 1011,5 hPa 0,0 l/m 14,0 km/h (3 Bft) S-SO 160 0 min 0 W/m 1,3 C -4,0 C 14,0 km/h (3 Bft)
11.12.2008 00:14 1,9 C 95 % 1011,5 hPa 0,0 l/m 13,4 km/h (3 Bft) S-SW 195 0 min 0 W/m 1,2 C -3,7 C 13,4 km/h (3 Bft)
11.12.2008 00:20 2,0 C 95 % 1011,5 hPa 0,0 l/m 12,5 km/h (2 Bft) S 185 0 min 0 W/m 1,3 C -3,0 C 12,5 km/h (2 Bft)
11.12.2008 00:25 1,9 C 95 % 1011,5 hPa 0,0 l/m 14,1 km/h (3 Bft) S-SW 205 0 min 0 W/m 1,2 C -4,2 C 14,1 km/h (3 Bft)
11.12.2008 00:30 1,9 C 95 % 1011,5 hPa 0,0 l/m 10,7 km/h (2 Bft) S 175 0 min 0 W/m 1,2 C -1,9 C 10,7 km/h (2 Bft)
11.12.2008 00:34 1,9 C 95 % 1011,5 hPa 0,0 l/m 11,5 km/h (2 Bft) S 185 0 min 0 W/m 1,2 C -2,5 C 11,5 km/h (2 Bft)
11.12.2008 00:39 1,9 C 95 % 1011,5 hPa 0,3 l/m 14,3 km/h (3 Bft) S 170 0 min 0 W/m 1,2 C -4,3 C 14,3 km/h (3 Bft)
11.12.2008 00:44 1,9 C 95 % 1011,5 hPa 0,0 l/m 11,8 km/h (2 Bft) S-SO 165 0 min 0 W/m 1,2 C -2,7 C 11,8 km/h (2 Bft)
11.12.2008 00:49 1,9 C 95 % 1011,5 hPa 0,0 l/m 9,2 km/h (2 Bft) S-SO 160 0 min 0 W/m 1,2 C -0,7 C 9,2 km/h (2 Bft)
11.12.2008 00:54 1,9 C 94 % 1011,5 hPa 0,0 l/m 11,6 km/h (2 Bft) S 175 0 min 0 W/m 1,0 C -2,5 C 11,6 km/h (2 Bft)
11.12.2008 01:00 2,0 C 94 % 1011,5 hPa 0,0 l/m 11,4 km/h (2 Bft) S-SO 165 0 min 0 W/m 1,1 C -2,3 C 11,4 km/h (2 Bft)
11.12.2008 01:05 1,9 C 94 % 1011,5 hPa 0,0 l/m 10,7 km/h (2 Bft) S-SO 160 0 min 0 W/m 1,0 C -1,9 C 10,7 km/h (2 Bft)
11.12.2008 01:09 1,9 C 94 % 1011,5 hPa 0,0 l/m 10,6 km/h (2 Bft) S 175 0 min 0 W/m 1,0 C -1,8 C 10,6 km/h (2 Bft)
11.12.2008 01:14 1,9 C 94 % 1011,5 hPa 0,0 l/m 7,8 km/h (2 Bft) SO 140 0 min 0 W/m 1,0 C 0,5 C 7,8 km/h (2 Bft)
11.12.2008 01:19 1,9 C 94 % 1011,5 hPa 0,0 l/m 15,9 km/h (3 Bft) S-SO 150 0 min 0 W/m 1,0 C -5,2 C 15,9 km/h (3 Bft)
11.12.2008 01:24 1,9 C 94 % 1011,5 hPa 0,0 l/m 15,6 km/h (3 Bft) S-SO 150 0 min 0 W/m 1,0 C -5,0 C 15,6 km/h (3 Bft)
11.12.2008 01:30 1,8 C 94 % 1011,5 hPa 0,0 l/m 11,9 km/h (2 Bft) S-SO 165 0 min 0 W/m 0,9 C -2,9 C 11,9 km/h (2 Bft)
11.12.2008 01:35 1,8 C 94 % 1011,5 hPa 0,0 l/m 9,6 km/h (2 Bft) S 175 0 min 0 W/m 0,9 C -1,1 C 9,6 km/h (2 Bft)
11.12.2008 01:40 1,8 C 94 % 1011,5 hPa 0,0 l/m 12,5 km/h (2 Bft) S 175 0 min 0 W/m 0,9 C -3,3 C 12,5 km/h (2 Bft)
11.12.2008 01:44 1,8 C 94 % 1011,5 hPa 0,0 l/m 11,1 km/h (2 Bft) S-SO 160 0 min 0 W/m 0,9 C -2,3 C 11,1 km/h (2 Bft)
11.12.2008 01:49 1,7 C 94 % 1011,5 hPa 0,0 l/m 7,6 km/h (2 Bft) S 175 0 min 0 W/m 0,8 C 0,5 C 7,6 km/h (2 Bft)
11.12.2008 01:54 1,7 C 94 % 1011,5 hPa 0,0 l/m 13,4 km/h (3 Bft) S 170 0 min 0 W/m 0,8 C -4,0 C 13,4 km/h (3 Bft)
11.12.2008 02:00 1,7 C 94 % 1011,5 hPa 0,0 l/m 14,1 km/h (3 Bft) S 185 0 min 0 W/m 0,8 C -4,4 C 14,1 km/h (3 Bft)
11.12.2008 02:04 1,7 C 94 % 1011,5 hPa 0,0 l/m 13,6 km/h (3 Bft) S 185 0 min 0 W/m 0,8 C -4,1 C 13,6 km/h (3 Bft)
11.12.2008 02:09 1,6 C 94 % 1011,5 hPa 0,0 l/m 15,1 km/h (3 Bft) S 175 0 min 0 W/m 0,7 C -5,1 C 15,1 km/h (3 Bft)
11.12.2008 02:14 1,5 C 94 % 1011,5 hPa 0,0 l/m 12,8 km/h (3 Bft) S 170 0 min 0 W/m 0,6 C -3,8 C 12,8 km/h (3 Bft)
11.12.2008 02:19 1,5 C 94 % 1011,5 hPa 0,0 l/m 11,1 km/h (2 Bft) S 170 0 min 0 W/m 0,6 C -2,6 C 11,1 km/h (2 Bft)
11.12.2008 02:24 1,5 C 94 % 1011,5 hPa 0,0 l/m 11,3 km/h (2 Bft) S 180 0 min 0 W/m 0,6 C -2,8 C 11,3 km/h (2 Bft)
11.12.2008 02:30 1,4 C 94 % 1011,5 hPa 0,0 l/m 10,5 km/h (2 Bft) S 185 0 min 0 W/m 0,5 C -2,3 C 10,5 km/h (2 Bft)
11.12.2008 02:35 1,5 C 94 % 1011,5 hPa 0,0 l/m 15,1 km/h (3 Bft) S 170 0 min 0 W/m 0,6 C -5,2 C 15,1 km/h (3 Bft)
11.12.2008 02:40 1,5 C 94 % 1011,5 hPa 0,0 l/m 13,1 km/h (3 Bft) S-SO 160 0 min 0 W/m 0,6 C -4,0 C 13,1 km/h (3 Bft)
11.12.2008 02:44 1,5 C 94 % 1011,5 hPa 0,0 l/m 10,0 km/h (2 Bft) S 175 0 min 0 W/m 0,6 C -1,8 C 10,0 km/h (2 Bft)
11.12.2008 02:49 1,5 C 94 % 1011,5 hPa 0,0 l/m 8,4 km/h (2 Bft) S-SO 160 0 min 0 W/m 0,6 C -0,4 C 8,4 km/h (2 Bft)
11.12.2008 02:54 1,5 C 94 % 1011,5 hPa 0,0 l/m 6,5 km/h (2 Bft) S-SO 165 0 min 0 W/m 0,6 C 1,4 C 6,5 km/h (2 Bft)
11.12.2008 02:59 1,5 C 94 % 1011,5 hPa 0,0 l/m 7,0 km/h (2 Bft) S-SO 160 0 min 0 W/m 0,6 C 0,9 C 7,0 km/h (2 Bft)
11.12.2008 03:04 1,5 C 94 % 1011,5 hPa 0,0 l/m 4,5 km/h (1 Bft) SO 135 0 min 0 W/m 0,6 C 1,5 C 4,5 km/h (1 Bft)
11.12.2008 03:10 1,6 C 94 % 1011,5 hPa 0,0 l/m 9,2 km/h (2 Bft) SO 140 0 min 0 W/m 0,7 C -1,0 C 9,2 km/h (2 Bft)
11.12.2008 03:14 1,6 C 94 % 1011,5 hPa 0,0 l/m 7,7 km/h (2 Bft) S-SO 165 0 min 0 W/m 0,7 C 0,3 C 7,7 km/h (2 Bft)
11.12.2008 03:19 1,7 C 94 % 1011,5 hPa 0,0 l/m 6,3 km/h (2 Bft) S-SO 160 0 min 0 W/m 0,8 C 1,7 C 6,3 km/h (2 Bft)
11.12.2008 03:24 1,7 C 94 % 1011,5 hPa 0,0 l/m 6,8 km/h (2 Bft) S-SO 150 0 min 0 W/m 0,8 C 1,3 C 6,8 km/h (2 Bft)
11.12.2008 03:29 1,7 C 94 % 1011,5 hPa 0,0 l/m 3,9 km/h (1 Bft) S-SO 155 0 min 0 W/m 0,8 C 1,7 C 3,9 km/h (1 Bft)
11.12.2008 03:34 1,7 C 94 % 1011,5 hPa 0,0 l/m 3,9 km/h (1 Bft) S-SO 160 0 min 0 W/m 0,8 C 1,7 C 3,9 km/h (1 Bft)
11.12.2008 03:40 1,7 C 94 % 1011,5 hPa 0,0 l/m 0,0 km/h (0 Bft) S-SO 160 0 min 0 W/m 0,8 C 1,7 C 0,0 km/h (0 Bft)
11.12.2008 03:45 1,6 C 94 % 1011,5 hPa 0,0 l/m 0,0 km/h (0 Bft) S-SO 160 0 min 0 W/m 0,7 C 1,6 C 0,0 km/h (0 Bft)
11.12.2008 03:50 1,5 C 94 % 1011,5 hPa 0,0 l/m 3,9 km/h (1 Bft) S-SO 160 0 min 0 W/m 0,6 C 1,5 C 3,9 km/h (1 Bft)
11.12.2008 03:54 1,4 C 94 % 1011,5 hPa 0,0 l/m 4,0 km/h (1 Bft) S-SO 160 0 min 0 W/m 0,5 C 1,4 C 4,0 km/h (1 Bft)
11.12.2008 03:59 1,2 C 94 % 1011,5 hPa 0,0 l/m 0,3 km/h (0 Bft) S-SO 160 0 min 0 W/m 0,3 C 1,2 C 0,3 km/h (0 Bft)
11.12.2008 04:04 1,2 C 94 % 1011,5 hPa 0,0 l/m 4,2 km/h (1 Bft) S-SO 160 0 min 0 W/m 0,3 C 1,2 C 4,2 km/h (1 Bft)
11.12.2008 04:10 1,2 C 94 % 1010,5 hPa 0,0 l/m 0,7 km/h (0 Bft) S-SO 160 0 min 0 W/m 0,3 C 1,2 C 0,7 km/h (0 Bft)
11.12.2008 04:15 1,2 C 94 % 1010,5 hPa 0,0 l/m 3,2 km/h (1 Bft) S-SO 165 0 min 0 W/m 0,3 C 1,2 C 3,2 km/h (1 Bft)
11.12.2008 04:19 1,2 C 94 % 1010,5 hPa 0,0 l/m 0,5 km/h (0 Bft) S-SO 160 0 min 0 W/m 0,3 C 1,2 C 0,5 km/h (0 Bft)
11.12.2008 04:24 1,2 C 94 % 1010,5 hPa 0,0 l/m 0,2 km/h (0 Bft) S-SO 160 0 min 0 W/m 0,3 C 1,2 C 0,2 km/h (0 Bft)
11.12.2008 04:29 1,2 C 94 % 1010,5 hPa 0,0 l/m 9,7 km/h (2 Bft) SO 140 0 min 0 W/m 0,3 C -1,9 C 9,7 km/h (2 Bft)
11.12.2008 04:34 1,2 C 94 % 1010,5 hPa 0,0 l/m 0,3 km/h (0 Bft) O-SO 115 0 min 0 W/m 0,3 C 1,2 C 0,3 km/h (0 Bft)
11.12.2008 04:39 1,2 C 94 % 1010,5 hPa 0,0 l/m 3,8 km/h (1 Bft) O-SO 120 0 min 0 W/m 0,3 C 1,2 C 3,8 km/h (1 Bft)
11.12.2008 04:45 1,4 C 94 % 1010,5 hPa 0,0 l/m 4,6 km/h (1 Bft) O-SO 115 0 min 0 W/m 0,5 C 1,4 C 4,6 km/h (1 Bft)
11.12.2008 04:50 1,5 C 94 % 1010,5 hPa 0,0 l/m 5,1 km/h (1 Bft) O-SO 115 0 min 0 W/m 0,6 C 1,5 C 5,1 km/h (1 Bft)
11.12.2008 04:55 1,5 C 94 % 1010,5 hPa 0,0 l/m 7,7 km/h (2 Bft) O 100 0 min 0 W/m 0,6 C 0,2 C 7,7 km/h (2 Bft)
11.12.2008 04:59 1,6 C 94 % 1011,5 hPa 0,0 l/m 1,9 km/h (1 Bft) O-SO 110 0 min 0 W/m 0,7 C 1,6 C 1,9 km/h (1 Bft)
11.12.2008 05:04 1,7 C 94 % 1011,5 hPa 0,0 l/m 1,6 km/h (1 Bft) O 95 0 min 0 W/m 0,8 C 1,7 C 1,6 km/h (1 Bft)
11.12.2008 05:10 1,7 C 94 % 1011,5 hPa 0,0 l/m 6,7 km/h (2 Bft) O 90 0 min 0 W/m 0,8 C 1,4 C 6,7 km/h (2 Bft)
11.12.2008 05:15 1,9 C 94 % 1011,5 hPa 0,0 l/m 14,1 km/h (3 Bft) O-SO 115 0 min 0 W/m 1,0 C -4,2 C 14,1 km/h (3 Bft)
11.12.2008 05:20 1,9 C 94 % 1011,5 hPa 0,0 l/m 6,7 km/h (2 Bft) O-SO 110 0 min 0 W/m 1,0 C 1,6 C 6,7 km/h (2 Bft)
11.12.2008 05:24 1,9 C 94 % 1011,5 hPa 0,0 l/m 10,5 km/h (2 Bft) O-SO 115 0 min 0 W/m 1,0 C -1,7 C 10,5 km/h (2 Bft)
11.12.2008 05:29 1,9 C 94 % 1011,5 hPa 0,0 l/m 14,8 km/h (3 Bft) O-SO 120 0 min 0 W/m 1,0 C -4,6 C 14,8 km/h (3 Bft)
11.12.2008 05:34 1,8 C 94 % 1011,5 hPa 0,0 l/m 16,4 km/h (3 Bft) O-SO 115 0 min 0 W/m 0,9 C -5,6 C 16,4 km/h (3 Bft)
11.12.2008 05:39 1,6 C 94 % 1011,5 hPa 0,0 l/m 8,9 km/h (2 Bft) SO 135 0 min 0 W/m 0,7 C -0,8 C 8,9 km/h (2 Bft)
11.12.2008 05:44 1,6 C 94 % 1011,5 hPa 0,0 l/m 14,3 km/h (3 Bft) O-SO 110 0 min 0 W/m 0,7 C -4,6 C 14,3 km/h (3 Bft)
11.12.2008 05:50 1,5 C 94 % 1011,5 hPa 0,0 l/m 13,3 km/h (3 Bft) O-SO 110 0 min 0 W/m 0,6 C -4,1 C 13,3 km/h (3 Bft)
11.12.2008 05:55 1,3 C 94 % 1010,5 hPa 0,0 l/m 11,5 km/h (2 Bft) SO 135 0 min 0 W/m 0,4 C -3,2 C 11,5 km/h (2 Bft)
11.12.2008 06:00 1,3 C 94 % 1010,5 hPa 0,0 l/m 11,3 km/h (2 Bft) O-SO 120 0 min 0 W/m 0,4 C -3,0 C 11,3 km/h (2 Bft)
11.12.2008 06:04 1,2 C 94 % 1010,5 hPa 0,0 l/m 9,2 km/h (2 Bft) O-SO 115 0 min 0 W/m 0,3 C -1,5 C 9,2 km/h (2 Bft)
11.12.2008 06:09 1,2 C 94 % 1010,5 hPa 0,0 l/m 16,9 km/h (3 Bft) SO 135 0 min 0 W/m 0,3 C -6,6 C 16,9 km/h (3 Bft)
11.12.2008 06:15 1,2 C 94 % 1010,5 hPa 0,0 l/m 17,3 km/h (3 Bft) SO 140 0 min 0 W/m 0,3 C -6,8 C 17,3 km/h (3 Bft)
11.12.2008 06:20 1,2 C 94 % 1011,5 hPa 0,0 l/m 7,2 km/h (2 Bft) SO 130 0 min 0 W/m 0,3 C 0,4 C 7,2 km/h (2 Bft)
11.12.2008 06:25 1,5 C 95 % 1011,5 hPa 0,0 l/m 16,0 km/h (3 Bft) S-SO 155 0 min 0 W/m 0,8 C -5,7 C 16,0 km/h (3 Bft)
11.12.2008 06:29 1,5 C 95 % 1011,5 hPa 0,0 l/m 9,1 km/h (2 Bft) S-SO 150 0 min 0 W/m 0,8 C -1,1 C 9,1 km/h (2 Bft)
11.12.2008 06:34 1,6 C 95 % 1011,5 hPa 0,0 l/m 11,0 km/h (2 Bft) SO 145 0 min 0 W/m 0,9 C -2,4 C 11,0 km/h (2 Bft)
11.12.2008 06:39 1,7 C 95 % 1011,5 hPa 0,0 l/m 10,0 km/h (2 Bft) SO 140 0 min 0 W/m 1,0 C -1,6 C 10,0 km/h (2 Bft)
11.12.2008 06:44 1,7 C 95 % 1011,5 hPa 0,0 l/m 15,0 km/h (3 Bft) S-SO 165 0 min 0 W/m 1,0 C -4,9 C 15,0 km/h (3 Bft)
11.12.2008 06:49 1,7 C 95 % 1011,5 hPa 0,0 l/m 12,3 km/h (2 Bft) S 170 0 min 0 W/m 1,0 C -3,2 C 12,3 km/h (2 Bft)
11.12.2008 06:55 1,7 C 95 % 1011,5 hPa 0,0 l/m 9,9 km/h (2 Bft) S-SO 160 0 min 0 W/m 1,0 C -1,5 C 9,9 km/h (2 Bft)
11.12.2008 07:00 1,7 C 94 % 1011,5 hPa 0,0 l/m 15,9 km/h (3 Bft) S-SO 155 0 min 0 W/m 0,8 C -5,4 C 15,9 km/h (3 Bft)
11.12.2008 07:04 1,7 C 94 % 1011,5 hPa 0,0 l/m 8,2 km/h (2 Bft) S 170 0 min 0 W/m 0,8 C -0,0 C 8,2 km/h (2 Bft)
11.12.2008 07:09 1,6 C 94 % 1011,5 hPa 0,0 l/m 11,5 km/h (2 Bft) S-SO 160 0 min 0 W/m 0,7 C -2,8 C 11,5 km/h (2 Bft)
11.12.2008 07:14 1,6 C 94 % 1011,5 hPa 0,0 l/m 13,8 km/h (3 Bft) S-SO 155 0 min 0 W/m 0,7 C -4,3 C 13,8 km/h (3 Bft)
11.12.2008 07:20 1,6 C 94 % 1011,5 hPa 0,0 l/m 13,0 km/h (3 Bft) S-SO 150 0 min 0 W/m 0,7 C -3,8 C 13,0 km/h (3 Bft)
11.12.2008 07:25 1,6 C 94 % 1011,5 hPa 0,0 l/m 13,3 km/h (3 Bft) SO 145 0 min 0 W/m 0,7 C -4,0 C 13,3 km/h (3 Bft)
11.12.2008 07:30 1,7 C 94 % 1011,5 hPa 0,0 l/m 11,4 km/h (2 Bft) S-SO 160 0 min 0 W/m 0,8 C -2,6 C 11,4 km/h (2 Bft)
11.12.2008 07:34 1,7 C 94 % 1011,5 hPa 0,0 l/m 10,9 km/h (2 Bft) S-SO 165 0 min 0 W/m 0,8 C -2,3 C 10,9 km/h (2 Bft)
11.12.2008 07:39 1,7 C 94 % 1011,5 hPa 0,0 l/m 8,5 km/h (2 Bft) S-SO 150 0 min 0 W/m 0,8 C -0,3 C 8,5 km/h (2 Bft)
11.12.2008 07:44 1,7 C 94 % 1011,5 hPa 0,0 l/m 12,7 km/h (3 Bft) S 170 0 min 0 W/m 0,8 C -3,5 C 12,7 km/h (3 Bft)
11.12.2008 07:49 1,8 C 94 % 1011,5 hPa 0,0 l/m 9,0 km/h (2 Bft) S-SO 150 0 min 0 W/m 0,9 C -0,6 C 9,0 km/h (2 Bft)
11.12.2008 07:55 1,8 C 94 % 1011,5 hPa 0,0 l/m 12,1 km/h (2 Bft) SO 145 0 min 0 W/m 0,9 C -3,0 C 12,1 km/h (2 Bft)
11.12.2008 08:00 1,8 C 94 % 1011,5 hPa 0,0 l/m 11,1 km/h (2 Bft) SO 145 0 min 0 W/m 0,9 C -2,3 C 11,1 km/h (2 Bft)
11.12.2008 08:04 1,7 C 94 % 1011,5 hPa 0,0 l/m 11,8 km/h (2 Bft) S-SO 150 0 min 0 W/m 0,8 C -2,9 C 11,8 km/h (2 Bft)
11.12.2008 08:09 1,7 C 94 % 1011,5 hPa 0,0 l/m 14,0 km/h (3 Bft) S 175 0 min 0 W/m 0,8 C -4,3 C 14,0 km/h (3 Bft)
11.12.2008 08:14 1,5 C 94 % 1011,5 hPa 0,0 l/m 12,3 km/h (2 Bft) S-SO 150 0 min 0 W/m 0,6 C -3,5 C 12,3 km/h (2 Bft)
11.12.2008 08:20 1,4 C 94 % 1011,5 hPa 0,0 l/m 9,3 km/h (2 Bft) S-SO 160 0 min 0 W/m 0,5 C -1,3 C 9,3 km/h (2 Bft)
11.12.2008 08:25 1,2 C 94 % 1011,5 hPa 0,0 l/m 9,3 km/h (2 Bft) S-SO 160 0 min 0 W/m 0,3 C -1,5 C 9,3 km/h (2 Bft)
11.12.2008 08:30 1,2 C 94 % 1011,5 hPa 0,0 l/m 7,9 km/h (2 Bft) SO 145 0 min 0 W/m 0,3 C -0,3 C 7,9 km/h (2 Bft)
11.12.2008 08:34 1,2 C 94 % 1011,5 hPa 0,0 l/m 7,8 km/h (2 Bft) S-SO 155 0 min 0 W/m 0,3 C -0,2 C 7,8 km/h (2 Bft)
11.12.2008 08:39 1,2 C 94 % 1011,5 hPa 0,0 l/m 7,1 km/h (2 Bft) SO 145 0 min 0 W/m 0,3 C 0,5 C 7,1 km/h (2 Bft)
11.12.2008 08:44 1,2 C 94 % 1012,5 hPa 0,0 l/m 11,3 km/h (2 Bft) S-SO 150 0 min 0 W/m 0,3 C -3,1 C 11,3 km/h (2 Bft)
11.12.2008 08:49 1,2 C 94 % 1012,5 hPa 0,0 l/m 7,0 km/h (2 Bft) S-SO 160 0 min 0 W/m 0,3 C 0,6 C 7,0 km/h (2 Bft)
11.12.2008 08:55 1,1 C 94 % 1012,5 hPa 0,0 l/m 5,4 km/h (2 Bft) S-SO 160 0 min 0 W/m 0,2 C 1,1 C 5,4 km/h (2 Bft)
11.12.2008 09:00 0,9 C 94 % 1012,5 hPa 0,0 l/m 5,4 km/h (2 Bft) S-SO 160 0 min 0 W/m 0,0 C 0,9 C 5,4 km/h (2 Bft)
11.12.2008 09:04 0,7 C 94 % 1012,5 hPa 0,0 l/m 4,3 km/h (1 Bft) S-SW 200 0 min 0 W/m -0,2 C 0,7 C 4,3 km/h (1 Bft)
11.12.2008 09:09 0,6 C 94 % 1012,5 hPa 0,0 l/m 3,0 km/h (1 Bft) S-SW 200 0 min 0 W/m -0,3 C 0,6 C 3,0 km/h (1 Bft)
11.12.2008 09:14 0,5 C 94 % 1012,5 hPa 0,0 l/m 0,6 km/h (0 Bft) S-SW 200 0 min 0 W/m -0,4 C 0,5 C 0,6 km/h (0 Bft)
11.12.2008 09:20 0,4 C 94 % 1012,5 hPa 0,0 l/m 1,1 km/h (1 Bft) S-SW 200 0 min 0 W/m -0,5 C 0,4 C 1,1 km/h (1 Bft)
11.12.2008 09:25 0,2 C 94 % 1012,5 hPa 0,0 l/m 0,7 km/h (0 Bft) S-SW 200 0 min 0 W/m -0,6 C 0,2 C 0,7 km/h (0 Bft)
11.12.2008 09:30 0,2 C 94 % 1012,5 hPa 0,0 l/m 5,2 km/h (1 Bft) S-SW 200 0 min 0 W/m -0,6 C 0,2 C 5,2 km/h (1 Bft)
11.12.2008 09:34 0,1 C 94 % 1012,5 hPa 0,0 l/m 3,6 km/h (1 Bft) S-SW 200 0 min 0 W/m -0,7 C 0,1 C 3,6 km/h (1 Bft)
11.12.2008 09:39 0,1 C 94 % 1012,5 hPa 0,0 l/m 3,0 km/h (1 Bft) S-SW 200 0 min 0 W/m -0,7 C 0,1 C 3,0 km/h (1 Bft)
11.12.2008 09:44 0,1 C 94 % 1012,5 hPa 0,0 l/m 2,9 km/h (1 Bft) S-SW 200 0 min 0 W/m -0,7 C 0,1 C 2,9 km/h (1 Bft)
11.12.2008 09:49 0,1 C 94 % 1012,5 hPa 0,0 l/m 1,0 km/h (0 Bft) S-SW 200 0 min 0 W/m -0,7 C 0,1 C 1,0 km/h (0 Bft)
11.12.2008 09:54 0,2 C 94 % 1012,5 hPa 0,0 l/m 3,9 km/h (1 Bft) S-SW 200 0 min 0 W/m -0,6 C 0,2 C 3,9 km/h (1 Bft)
11.12.2008 10:00 0,1 C 94 % 1012,5 hPa 0,0 l/m 3,5 km/h (1 Bft) S-SW 200 0 min 0 W/m -0,7 C 0,1 C 3,5 km/h (1 Bft)
11.12.2008 10:04 0,2 C 94 % 1012,5 hPa 0,0 l/m 3,6 km/h (1 Bft) S-SW 200 0 min 0 W/m -0,6 C 0,2 C 3,6 km/h (1 Bft)
11.12.2008 10:09 0,3 C 94 % 1012,5 hPa 0,0 l/m 1,8 km/h (1 Bft) S-SW 200 0 min 0 W/m -0,5 C 0,3 C 1,8 km/h (1 Bft)
11.12.2008 10:14 0,4 C 94 % 1012,5 hPa 0,0 l/m 4,5 km/h (1 Bft) S-SW 200 0 min 0 W/m -0,5 C 0,4 C 4,5 km/h (1 Bft)
11.12.2008 10:20 0,4 C 95 % 1012,5 hPa 0,0 l/m 0,3 km/h (0 Bft) S-SW 200 0 min 0 W/m -0,3 C 0,4 C 0,3 km/h (0 Bft)
11.12.2008 10:25 0,6 C 95 % 1012,5 hPa 0,0 l/m 0,3 km/h (0 Bft) S-SW 200 0 min 0 W/m -0,1 C 0,6 C 0,3 km/h (0 Bft)
11.12.2008 10:30 0,6 C 95 % 1012,5 hPa 0,0 l/m 0,4 km/h (0 Bft) S-SW 200 0 min 0 W/m -0,1 C 0,6 C 0,4 km/h (0 Bft)
11.12.2008 10:34 0,7 C 95 % 1012,5 hPa 0,0 l/m 1,6 km/h (1 Bft) S-SW 200 0 min 0 W/m -0,0 C 0,7 C 1,6 km/h (1 Bft)
11.12.2008 10:39 0,7 C 95 % 1012,5 hPa 0,0 l/m 3,5 km/h (1 Bft) S-SW 200 0 min 0 W/m -0,0 C 0,7 C 3,5 km/h (1 Bft)
11.12.2008 10:44 0,7 C 95 % 1012,5 hPa 0,0 l/m 5,9 km/h (2 Bft) S-SW 200 0 min 0 W/m -0,0 C 0,7 C 5,9 km/h (2 Bft)
11.12.2008 10:49 0,8 C 95 % 1012,5 hPa 0,0 l/m 3,4 km/h (1 Bft) S-SW 200 0 min 0 W/m 0,1 C 0,8 C 3,4 km/h (1 Bft)
11.12.2008 10:55 0,8 C 95 % 1012,5 hPa 0,0 l/m 3,2 km/h (1 Bft) S-SW 200 0 min 0 W/m 0,1 C 0,8 C 3,2 km/h (1 Bft)
11.12.2008 11:00 0,9 C 95 % 1012,5 hPa 0,0 l/m 1,0 km/h (0 Bft) S-SW 200 0 min 0 W/m 0,2 C 0,9 C 1,0 km/h (0 Bft)
11.12.2008 11:04 0,9 C 95 % 1012,5 hPa 0,0 l/m 0,4 km/h (0 Bft) S-SW 200 0 min 0 W/m 0,2 C 0,9 C 0,4 km/h (0 Bft)
11.12.2008 11:09 1,0 C 95 % 1012,5 hPa 0,0 l/m 0,0 km/h (0 Bft) S-SW 200 0 min 0 W/m 0,3 C 1,0 C 0,0 km/h (0 Bft)
11.12.2008 11:14 1,2 C 95 % 1012,5 hPa 0,0 l/m 1,0 km/h (0 Bft) S-SW 200 0 min 0 W/m 0,5 C 1,2 C 1,0 km/h (0 Bft)
11.12.2008 11:20 1,2 C 95 % 1012,5 hPa 0,0 l/m 0,2 km/h (0 Bft) S-SW 200 0 min 0 W/m 0,5 C 1,2 C 0,2 km/h (0 Bft)
11.12.2008 11:25 1,3 C 95 % 1012,5 hPa 0,0 l/m 8,1 km/h (2 Bft) S-SW 200 0 min 0 W/m 0,6 C -0,4 C 8,1 km/h (2 Bft)
11.12.2008 11:30 1,3 C 95 % 1012,5 hPa 0,0 l/m 8,9 km/h (2 Bft) S-SO 160 0 min 0 W/m 0,6 C -1,1 C 8,9 km/h (2 Bft)
11.12.2008 11:34 1,5 C 95 % 1012,5 hPa 0,0 l/m 12,0 km/h (2 Bft) SO 130 0 min 0 W/m 0,8 C -3,3 C 12,0 km/h (2 Bft)
11.12.2008 11:39 1,6 C 95 % 1012,5 hPa 0,0 l/m 9,4 km/h (2 Bft) S 175 0 min 0 W/m 0,9 C -1,2 C 9,4 km/h (2 Bft)
11.12.2008 11:44 1,6 C 95 % 1012,5 hPa 0,0 l/m 7,8 km/h (2 Bft) S 170 0 min 0 W/m 0,9 C 0,2 C 7,8 km/h (2 Bft)
11.12.2008 11:49 1,7 C 95 % 1012,5 hPa 0,0 l/m 7,9 km/h (2 Bft) S-SO 155 0 min 0 W/m 1,0 C 0,2 C 7,9 km/h (2 Bft)
11.12.2008 11:55 1,8 C 95 % 1012,5 hPa 0,0 l/m 7,3 km/h (2 Bft) S 170 0 min 0 W/m 1,1 C 0,9 C 7,3 km/h (2 Bft)
11.12.2008 12:00 1,8 C 95 % 1012,5 hPa 0,0 l/m 5,7 km/h (2 Bft) S-SO 160 0 min 0 W/m 1,1 C 1,8 C 5,7 km/h (2 Bft)
11.12.2008 12:04 1,8 C 95 % 1012,5 hPa 0,0 l/m 5,7 km/h (2 Bft) S 175 0 min 0 W/m 1,1 C 1,8 C 5,7 km/h (2 Bft)
11.12.2008 12:09 1,9 C 95 % 1012,5 hPa 0,0 l/m 3,6 km/h (1 Bft) S-SO 160 0 min 0 W/m 1,2 C 1,9 C 3,6 km/h (1 Bft)
11.12.2008 12:15 1,9 C 94 % 1012,5 hPa 0,0 l/m 5,2 km/h (1 Bft) SO 145 0 min 0 W/m 1,0 C 1,9 C 5,2 km/h (1 Bft)
11.12.2008 12:20 1,9 C 94 % 1012,5 hPa 0,0 l/m 4,0 km/h (1 Bft) SO 140 0 min 0 W/m 1,0 C 1,9 C 4,0 km/h (1 Bft)
11.12.2008 12:25 2,0 C 94 % 1012,5 hPa 0,0 l/m 10,7 km/h (2 Bft) S-SO 150 0 min 0 W/m 1,1 C -1,8 C 10,7 km/h (2 Bft)
11.12.2008 12:29 2,0 C 94 % 1012,5 hPa 0,0 l/m 11,9 km/h (2 Bft) SO 140 0 min 0 W/m 1,1 C -2,6 C 11,9 km/h (2 Bft)
11.12.2008 12:34 2,0 C 94 % 1012,5 hPa 0,0 l/m 6,3 km/h (2 Bft) S-SO 150 0 min 0 W/m 1,1 C 2,0 C 6,3 km/h (2 Bft)
11.12.2008 12:40 2,0 C 94 % 1012,5 hPa 0,0 l/m 7,7 km/h (2 Bft) S-SO 155 0 min 0 W/m 1,1 C 0,7 C 7,7 km/h (2 Bft)
11.12.2008 12:45 2,0 C 94 % 1012,5 hPa 0,0 l/m 4,4 km/h (1 Bft) SO 130 0 min 0 W/m 1,1 C 2,0 C 4,4 km/h (1 Bft)
11.12.2008 12:49 2,0 C 94 % 1012,5 hPa 0,0 l/m 8,3 km/h (2 Bft) S-SO 150 0 min 0 W/m 1,1 C 0,2 C 8,3 km/h (2 Bft)
11.12.2008 12:54 2,0 C 94 % 1012,5 hPa 0,0 l/m 4,6 km/h (1 Bft) SO 125 0 min 0 W/m 1,1 C 2,0 C 4,6 km/h (1 Bft)
11.12.2008 12:59 2,1 C 94 % 1012,5 hPa 0,0 l/m 8,1 km/h (2 Bft) SO 140 0 min 0 W/m 1,2 C 0,5 C 8,1 km/h (2 Bft)
11.12.2008 13:04 2,1 C 94 % 1012,5 hPa 0,0 l/m 1,9 km/h (1 Bft) S-SO 150 0 min 0 W/m 1,2 C 2,1 C 1,9 km/h (1 Bft)
11.12.2008 13:10 2,2 C 94 % 1012,5 hPa 0,0 l/m 5,9 km/h (2 Bft) SO 145 0 min 0 W/m 1,3 C 2,2 C 5,9 km/h (2 Bft)
11.12.2008 13:14 2,4 C 94 % 1012,5 hPa 0,0 l/m 2,5 km/h (1 Bft) SO 125 0 min 0 W/m 1,5 C 2,4 C 2,5 km/h (1 Bft)
11.12.2008 13:19 2,5 C 94 % 1012,5 hPa 0,0 l/m 9,2 km/h (2 Bft) O-SO 105 0 min 0 W/m 1,6 C -0,1 C 9,2 km/h (2 Bft)
11.12.2008 13:24 2,6 C 94 % 1012,5 hPa 0,0 l/m 11,9 km/h (2 Bft) SO 140 0 min 0 W/m 1,7 C -1,9 C 11,9 km/h (2 Bft)
11.12.2008 13:30 2,6 C 94 % 1012,5 hPa 0,0 l/m 13,2 km/h (3 Bft) S-SO 155 0 min 0 W/m 1,7 C -2,8 C 13,2 km/h (3 Bft)
11.12.2008 13:35 2,6 C 93 % 1012,5 hPa 0,0 l/m 14,5 km/h (3 Bft) SO 145 0 min 0 W/m 1,6 C -3,5 C 14,5 km/h (3 Bft)
11.12.2008 13:40 2,5 C 93 % 1012,5 hPa 0,0 l/m 11,9 km/h (2 Bft) SO 140 0 min 0 W/m 1,5 C -2,1 C 11,9 km/h (2 Bft)
11.12.2008 13:44 2,5 C 93 % 1012,5 hPa 0,0 l/m 12,1 km/h (2 Bft) S-SO 155 0 min 0 W/m 1,5 C -2,2 C 12,1 km/h (2 Bft)
11.12.2008 13:49 2,4 C 92 % 1012,5 hPa 0,0 l/m 18,9 km/h (3 Bft) S-SO 155 0 min 0 W/m 1,2 C -6,0 C 18,9 km/h (3 Bft)
11.12.2008 13:54 2,4 C 92 % 1012,5 hPa 0,0 l/m 11,8 km/h (2 Bft) S-SO 165 0 min 0 W/m 1,2 C -2,1 C 11,8 km/h (2 Bft)
11.12.2008 14:00 2,4 C 92 % 1012,5 hPa 0,0 l/m 13,8 km/h (3 Bft) SO 140 0 min 0 W/m 1,2 C -3,4 C 13,8 km/h (3 Bft)
11.12.2008 14:05 2,5 C 92 % 1012,5 hPa 0,0 l/m 10,1 km/h (2 Bft) SO 125 0 min 0 W/m 1,3 C -0,8 C 10,1 km/h (2 Bft)
11.12.2008 14:09 2,5 C 92 % 1012,5 hPa 0,0 l/m 12,0 km/h (2 Bft) SO 130 0 min 0 W/m 1,3 C -2,1 C 12,0 km/h (2 Bft)
11.12.2008 14:14 2,3 C 91 % 1012,5 hPa 0,0 l/m 12,5 km/h (2 Bft) S-SO 150 0 min 0 W/m 1,0 C -2,7 C 12,5 km/h (2 Bft)
11.12.2008 14:19 2,3 C 91 % 1012,5 hPa 0,0 l/m 3,9 km/h (1 Bft) SO 145 0 min 0 W/m 1,0 C 2,3 C 3,9 km/h (1 Bft)
11.12.2008 14:25 2,3 C 91 % 1012,5 hPa 0,0 l/m 13,6 km/h (3 Bft) S-SO 155 0 min 0 W/m 1,0 C -3,4 C 13,6 km/h (3 Bft)
11.12.2008 14:30 2,3 C 91 % 1012,5 hPa 0,0 l/m 12,9 km/h (3 Bft) SO 125 0 min 0 W/m 1,0 C -2,9 C 12,9 km/h (3 Bft)
11.12.2008 14:34 2,3 C 91 % 1012,5 hPa 0,0 l/m 11,8 km/h (2 Bft) SO 145 0 min 0 W/m 1,0 C -2,2 C 11,8 km/h (2 Bft)
11.12.2008 14:39 2,2 C 90 % 1012,5 hPa 0,0 l/m 15,1 km/h (3 Bft) SO 135 0 min 0 W/m 0,7 C -4,4 C 15,1 km/h (3 Bft)
11.12.2008 14:44 2,3 C 90 % 1012,5 hPa 0,0 l/m 11,5 km/h (2 Bft) S-SO 150 0 min 0 W/m 0,8 C -2,0 C 11,5 km/h (2 Bft)
11.12.2008 14:49 2,2 C 89 % 1012,5 hPa 0,0 l/m 14,0 km/h (3 Bft) S-SO 150 0 min 0 W/m 0,6 C -3,7 C 14,0 km/h (3 Bft)
11.12.2008 14:55 2,2 C 89 % 1012,5 hPa 0,0 l/m 14,5 km/h (3 Bft) SO 145 0 min 0 W/m 0,6 C -4,0 C 14,5 km/h (3 Bft)
11.12.2008 15:00 2,2 C 89 % 1012,5 hPa 0,0 l/m 10,1 km/h (2 Bft) S-SO 150 0 min 0 W/m 0,6 C -1,1 C 10,1 km/h (2 Bft)
11.12.2008 15:04 2,1 C 89 % 1012,5 hPa 0,0 l/m 11,4 km/h (2 Bft) SO 135 0 min 0 W/m 0,5 C -2,2 C 11,4 km/h (2 Bft)
11.12.2008 15:09 2,2 C 89 % 1012,5 hPa 0,0 l/m 8,4 km/h (2 Bft) SO 140 0 min 0 W/m 0,6 C 0,3 C 8,4 km/h (2 Bft)
11.12.2008 15:15 2,1 C 89 % 1012,5 hPa 0,0 l/m 15,8 km/h (3 Bft) SO 135 0 min 0 W/m 0,5 C -4,9 C 15,8 km/h (3 Bft)
11.12.2008 15:20 2,1 C 89 % 1012,5 hPa 0,0 l/m 8,4 km/h (2 Bft) SO 140 0 min 0 W/m 0,5 C 0,2 C 8,4 km/h (2 Bft)
11.12.2008 15:24 2,0 C 88 % 1012,5 hPa 0,0 l/m 6,1 km/h (2 Bft) O-SO 115 0 min 0 W/m 0,2 C 2,0 C 6,1 km/h (2 Bft)
11.12.2008 15:29 1,9 C 89 % 1012,5 hPa 0,0 l/m 9,6 km/h (2 Bft) SO 130 0 min 0 W/m 0,3 C -1,0 C 9,6 km/h (2 Bft)
11.12.2008 15:34 1,9 C 89 % 1012,5 hPa 0,0 l/m 11,1 km/h (2 Bft) SO 145 0 min 0 W/m 0,3 C -2,2 C 11,1 km/h (2 Bft)
11.12.2008 15:39 1,9 C 89 % 1012,5 hPa 0,0 l/m 10,5 km/h (2 Bft) SO 135 0 min 0 W/m 0,3 C -1,7 C 10,5 km/h (2 Bft)
11.12.2008 15:45 1,9 C 89 % 1012,5 hPa 0,0 l/m 11,0 km/h (2 Bft) SO 140 0 min 0 W/m 0,3 C -2,1 C 11,0 km/h (2 Bft)
11.12.2008 15:50 1,9 C 89 % 1012,5 hPa 0,0 l/m 9,4 km/h (2 Bft) SO 135 0 min 0 W/m 0,3 C -0,9 C 9,4 km/h (2 Bft)
11.12.2008 15:54 1,9 C 89 % 1012,5 hPa 0,0 l/m 11,5 km/h (2 Bft) SO 130 0 min 0 W/m 0,3 C -2,5 C 11,5 km/h (2 Bft)
11.12.2008 15:59 1,9 C 89 % 1012,5 hPa 0,0 l/m 13,3 km/h (3 Bft) O-SO 115 0 min 0 W/m 0,3 C -3,7 C 13,3 km/h (3 Bft)
11.12.2008 16:04 1,9 C 89 % 1012,5 hPa 0,0 l/m 10,7 km/h (2 Bft) SO 125 0 min 0 W/m 0,3 C -1,9 C 10,7 km/h (2 Bft)
11.12.2008 16:10 1,9 C 89 % 1012,5 hPa 0,0 l/m 12,8 km/h (3 Bft) S-SO 150 0 min 0 W/m 0,3 C -3,3 C 12,8 km/h (3 Bft)
11.12.2008 16:14 1,9 C 89 % 1012,5 hPa 0,0 l/m 10,8 km/h (2 Bft) SO 145 0 min 0 W/m 0,3 C -2,0 C 10,8 km/h (2 Bft)
11.12.2008 16:19 1,9 C 89 % 1012,5 hPa 0,0 l/m 11,6 km/h (2 Bft) SO 125 0 min 0 W/m 0,3 C -2,5 C 11,6 km/h (2 Bft)
11.12.2008 16:24 1,9 C 89 % 1012,5 hPa 0,0 l/m 10,4 km/h (2 Bft) O-SO 120 0 min 0 W/m 0,3 C -1,7 C 10,4 km/h (2 Bft)
11.12.2008 16:29 1,9 C 89 % 1012,5 hPa 0,0 l/m 10,1 km/h (2 Bft) SO 130 0 min 0 W/m 0,3 C -1,4 C 10,1 km/h (2 Bft)
11.12.2008 16:35 1,9 C 89 % 1012,5 hPa 0,0 l/m 5,6 km/h (2 Bft) SO 130 0 min 0 W/m 0,3 C 1,9 C 5,6 km/h (2 Bft)
11.12.2008 16:40 1,9 C 89 % 1012,5 hPa 0,0 l/m 8,9 km/h (2 Bft) O 95 0 min 0 W/m 0,3 C -0,5 C 8,9 km/h (2 Bft)
11.12.2008 16:45 1,9 C 89 % 1012,5 hPa 0,0 l/m 12,0 km/h (2 Bft) SO 140 0 min 0 W/m 0,3 C -2,8 C 12,0 km/h (2 Bft)
11.12.2008 16:49 1,9 C 89 % 1012,5 hPa 0,0 l/m 7,8 km/h (2 Bft) O-SO 115 0 min 0 W/m 0,3 C 0,5 C 7,8 km/h (2 Bft)
11.12.2008 16:54 1,8 C 89 % 1012,5 hPa 0,0 l/m 11,4 km/h (2 Bft) SO 125 0 min 0 W/m 0,2 C -2,5 C 11,4 km/h (2 Bft)
11.12.2008 16:59 1,8 C 89 % 1012,5 hPa 0,0 l/m 12,0 km/h (2 Bft) SO 145 0 min 0 W/m 0,2 C -2,9 C 12,0 km/h (2 Bft)
11.12.2008 17:05 1,8 C 89 % 1012,5 hPa 0,0 l/m 7,9 km/h (2 Bft) O-SO 120 0 min 0 W/m 0,2 C 0,3 C 7,9 km/h (2 Bft)
11.12.2008 17:09 1,8 C 89 % 1012,5 hPa 0,0 l/m 10,0 km/h (2 Bft) SO 140 0 min 0 W/m 0,2 C -1,5 C 10,0 km/h (2 Bft)
11.12.2008 17:14 1,8 C 89 % 1012,5 hPa 0,0 l/m 10,9 km/h (2 Bft) S-SO 160 0 min 0 W/m 0,2 C -2,1 C 10,9 km/h (2 Bft)
11.12.2008 17:19 1,8 C 89 % 1012,5 hPa 0,0 l/m 11,0 km/h (2 Bft) S-SO 155 0 min 0 W/m 0,2 C -2,2 C 11,0 km/h (2 Bft)
11.12.2008 17:25 1,8 C 89 % 1012,5 hPa 0,0 l/m 5,9 km/h (2 Bft) S 170 0 min 0 W/m 0,2 C 1,8 C 5,9 km/h (2 Bft)
11.12.2008 17:30 1,8 C 89 % 1012,5 hPa 0,0 l/m 4,1 km/h (1 Bft) S 175 0 min 0 W/m 0,2 C 1,8 C 4,1 km/h (1 Bft)
11.12.2008 17:34 1,8 C 89 % 1012,5 hPa 0,0 l/m 8,0 km/h (2 Bft) S 190 0 min 0 W/m 0,2 C 0,2 C 8,0 km/h (2 Bft)
11.12.2008 17:39 1,7 C 89 % 1012,5 hPa 0,0 l/m 4,3 km/h (1 Bft) S-SW 205 0 min 0 W/m 0,1 C 1,7 C 4,3 km/h (1 Bft)
11.12.2008 17:44 1,7 C 89 % 1012,5 hPa 0,0 l/m 8,5 km/h (2 Bft) S-SW 205 0 min 0 W/m 0,1 C -0,3 C 8,5 km/h (2 Bft)
11.12.2008 17:49 1,7 C 89 % 1012,5 hPa 0,0 l/m 8,0 km/h (2 Bft) SO 130 0 min 0 W/m 0,1 C 0,1 C 8,0 km/h (2 Bft)
11.12.2008 17:55 1,7 C 89 % 1012,5 hPa 0,0 l/m 6,0 km/h (2 Bft) SO 145 0 min 0 W/m 0,1 C 1,7 C 6,0 km/h (2 Bft)
11.12.2008 18:00 1,7 C 89 % 1012,5 hPa 0,0 l/m 6,5 km/h (2 Bft) S-SO 165 0 min 0 W/m 0,1 C 1,6 C 6,5 km/h (2 Bft)
11.12.2008 18:04 1,7 C 89 % 1012,5 hPa 0,0 l/m 7,4 km/h (2 Bft) SO 140 0 min 0 W/m 0,1 C 0,7 C 7,4 km/h (2 Bft)
11.12.2008 18:09 1,7 C 89 % 1012,5 hPa 0,0 l/m 5,9 km/h (2 Bft) SO 135 0 min 0 W/m 0,1 C 1,7 C 5,9 km/h (2 Bft)
11.12.2008 18:15 1,6 C 89 % 1012,5 hPa 0,0 l/m 12,0 km/h (2 Bft) SO 145 0 min 0 W/m -0,0 C -3,2 C 12,0 km/h (2 Bft)
11.12.2008 18:20 1,6 C 89 % 1012,5 hPa 0,0 l/m 6,1 km/h (2 Bft) S-SO 155 0 min 0 W/m -0,0 C 1,6 C 6,1 km/h (2 Bft)
11.12.2008 18:24 1,6 C 89 % 1012,5 hPa 0,0 l/m 5,2 km/h (1 Bft) S-SO 150 0 min 0 W/m -0,0 C 1,6 C 5,2 km/h (1 Bft)
11.12.2008 18:29 1,6 C 89 % 1012,5 hPa 0,0 l/m 5,8 km/h (2 Bft) S-SO 150 0 min 0 W/m -0,0 C 1,6 C 5,8 km/h (2 Bft)
11.12.2008 18:34 1,6 C 89 % 1012,5 hPa 0,0 l/m 5,8 km/h (2 Bft) SO 145 0 min 0 W/m -0,0 C 1,6 C 5,8 km/h (2 Bft)
11.12.2008 18:40 1,5 C 89 % 1012,5 hPa 0,0 l/m 0,3 km/h (0 Bft) SO 140 0 min 0 W/m -0,1 C 1,5 C 0,3 km/h (0 Bft)
11.12.2008 18:45 1,5 C 89 % 1012,5 hPa 0,0 l/m 4,8 km/h (1 Bft) SO 135 0 min 0 W/m -0,1 C 1,5 C 4,8 km/h (1 Bft)
11.12.2008 18:50 1,5 C 89 % 1012,5 hPa 0,0 l/m 5,2 km/h (1 Bft) SO 130 0 min 0 W/m -0,1 C 1,5 C 5,2 km/h (1 Bft)
11.12.2008 18:54 1,5 C 89 % 1012,5 hPa 0,0 l/m 3,3 km/h (1 Bft) SO 125 0 min 0 W/m -0,1 C 1,5 C 3,3 km/h (1 Bft)
11.12.2008 18:59 1,5 C 89 % 1012,5 hPa 0,0 l/m 4,4 km/h (1 Bft) S-SO 150 0 min 0 W/m -0,1 C 1,5 C 4,4 km/h (1 Bft)
11.12.2008 19:04 1,5 C 89 % 1012,5 hPa 0,0 l/m 0,0 km/h (0 Bft) S 180 0 min 0 W/m -0,1 C 1,5 C 0,0 km/h (0 Bft)
11.12.2008 19:09 1,5 C 89 % 1012,5 hPa 0,0 l/m 8,3 km/h (2 Bft) SO 140 0 min 0 W/m -0,1 C -0,3 C 8,3 km/h (2 Bft)
11.12.2008 19:14 1,5 C 89 % 1012,5 hPa 0,0 l/m 5,4 km/h (2 Bft) S-SO 150 0 min 0 W/m -0,1 C 1,5 C 5,4 km/h (2 Bft)
11.12.2008 19:19 1,5 C 89 % 1013,5 hPa 0,0 l/m 4,2 km/h (1 Bft) S-SO 160 0 min 0 W/m -0,1 C 1,5 C 4,2 km/h (1 Bft)
11.12.2008 19:24 1,5 C 89 % 1012,5 hPa 0,0 l/m 6,3 km/h (2 Bft) S-SO 150 0 min 0 W/m -0,1 C 1,5 C 6,3 km/h (2 Bft)
11.12.2008 19:30 1,5 C 89 % 1012,5 hPa 0,0 l/m 6,1 km/h (2 Bft) O-SO 115 0 min 0 W/m -0,1 C 1,5 C 6,1 km/h (2 Bft)
11.12.2008 19:35 1,5 C 89 % 1013,5 hPa 0,0 l/m 1,6 km/h (1 Bft) SO 125 0 min 0 W/m -0,1 C 1,5 C 1,6 km/h (1 Bft)
11.12.2008 19:39 1,5 C 89 % 1013,5 hPa 0,0 l/m 4,2 km/h (1 Bft) S-SO 150 0 min 0 W/m -0,1 C 1,5 C 4,2 km/h (1 Bft)
11.12.2008 19:44 1,4 C 89 % 1013,5 hPa 0,0 l/m 5,5 km/h (2 Bft) S-SW 195 0 min 0 W/m -0,2 C 1,4 C 5,5 km/h (2 Bft)
11.12.2008 19:49 1,2 C 89 % 1012,5 hPa 0,0 l/m 0,3 km/h (0 Bft) O-SO 110 0 min 0 W/m -0,4 C 1,2 C 0,3 km/h (0 Bft)
11.12.2008 19:55 1,2 C 89 % 1012,5 hPa 0,0 l/m 0,7 km/h (0 Bft) O-SO 120 0 min 0 W/m -0,4 C 1,2 C 0,7 km/h (0 Bft)
11.12.2008 20:00 1,2 C 89 % 1012,5 hPa 0,0 l/m 3,6 km/h (1 Bft) SO 145 0 min 0 W/m -0,4 C 1,2 C 3,6 km/h (1 Bft)
11.12.2008 20:04 1,1 C 89 % 1012,5 hPa 0,0 l/m 0,9 km/h (0 Bft) SO 140 0 min 0 W/m -0,5 C 1,1 C 0,9 km/h (0 Bft)
11.12.2008 20:09 1,0 C 89 % 1012,5 hPa 0,0 l/m 0,3 km/h (0 Bft) S-SO 150 0 min 0 W/m -0,6 C 1,0 C 0,3 km/h (0 Bft)
11.12.2008 20:15 0,9 C 90 % 1012,5 hPa 0,0 l/m 0,1 km/h (0 Bft) SO 145 0 min 0 W/m -0,6 C 0,9 C 0,1 km/h (0 Bft)
11.12.2008 20:20 0,8 C 89 % 1012,5 hPa 0,0 l/m 0,6 km/h (0 Bft) SO 145 0 min 0 W/m -0,8 C 0,8 C 0,6 km/h (0 Bft)
11.12.2008 20:24 0,7 C 90 % 1012,5 hPa 0,0 l/m 6,5 km/h (2 Bft) SO 130 0 min 0 W/m -0,7 C 0,6 C 6,5 km/h (2 Bft)
11.12.2008 20:29 0,7 C 90 % 1012,5 hPa 0,0 l/m 0,4 km/h (0 Bft) O 95 0 min 0 W/m -0,7 C 0,7 C 0,4 km/h (0 Bft)
11.12.2008 20:34 0,7 C 90 % 1012,5 hPa 0,0 l/m 0,4 km/h (0 Bft) O 95 0 min 0 W/m -0,7 C 0,7 C 0,4 km/h (0 Bft)
11.12.2008 20:40 0,6 C 90 % 1012,5 hPa 0,0 l/m 1,8 km/h (1 Bft) O 100 0 min 0 W/m -0,8 C 0,6 C 1,8 km/h (1 Bft)
11.12.2008 20:45 0,6 C 90 % 1012,5 hPa 0,0 l/m 0,4 km/h (0 Bft) O-SO 110 0 min 0 W/m -0,8 C 0,6 C 0,4 km/h (0 Bft)
11.12.2008 20:50 0,6 C 90 % 1012,5 hPa 0,0 l/m 0,1 km/h (0 Bft) O-SO 110 0 min 0 W/m -0,8 C 0,6 C 0,1 km/h (0 Bft)
11.12.2008 20:54 0,5 C 90 % 1012,5 hPa 0,0 l/m 0,0 km/h (0 Bft) O-SO 110 0 min 0 W/m -0,9 C 0,5 C 0,0 km/h (0 Bft)
11.12.2008 20:59 0,5 C 90 % 1012,5 hPa 0,0 l/m 3,0 km/h (1 Bft) SO 135 0 min 0 W/m -0,9 C 0,5 C 3,0 km/h (1 Bft)
11.12.2008 21:04 0,4 C 91 % 1012,5 hPa 0,0 l/m 0,1 km/h (0 Bft) SO 140 0 min 0 W/m -0,9 C 0,4 C 0,1 km/h (0 Bft)
11.12.2008 21:09 0,4 C 91 % 1012,5 hPa 0,0 l/m 0,4 km/h (0 Bft) SO 140 0 min 0 W/m -0,9 C 0,4 C 0,4 km/h (0 Bft)
11.12.2008 21:14 0,3 C 91 % 1012,5 hPa 0,0 l/m 0,6 km/h (0 Bft) SO 140 0 min 0 W/m -1,0 C 0,3 C 0,6 km/h (0 Bft)
11.12.2008 21:19 0,3 C 91 % 1012,5 hPa 0,0 l/m 0,3 km/h (0 Bft) SO 140 0 min 0 W/m -1,0 C 0,3 C 0,3 km/h (0 Bft)
11.12.2008 21:24 0,3 C 91 % 1012,5 hPa 0,0 l/m 0,3 km/h (0 Bft) SO 140 0 min 0 W/m -1,0 C 0,3 C 0,3 km/h (0 Bft)
11.12.2008 21:30 0,3 C 91 % 1012,5 hPa 0,0 l/m 0,1 km/h (0 Bft) SO 140 0 min 0 W/m -1,0 C 0,3 C 0,1 km/h (0 Bft)
11.12.2008 21:35 0,3 C 91 % 1012,5 hPa 0,0 l/m 0,0 km/h (0 Bft) SO 140 0 min 0 W/m -1,0 C 0,3 C 0,0 km/h (0 Bft)
11.12.2008 21:39 0,3 C 91 % 1012,5 hPa 0,0 l/m 0,0 km/h (0 Bft) SO 140 0 min 0 W/m -1,0 C 0,3 C 0,0 km/h (0 Bft)
11.12.2008 21:44 0,3 C 91 % 1012,5 hPa 0,0 l/m 2,3 km/h (1 Bft) SO 140 0 min 0 W/m -1,0 C 0,3 C 2,3 km/h (1 Bft)
11.12.2008 21:49 0,3 C 91 % 1012,5 hPa 0,0 l/m 1,5 km/h (1 Bft) SO 140 0 min 0 W/m -1,0 C 0,3 C 1,5 km/h (1 Bft)
11.12.2008 21:55 0,4 C 91 % 1012,5 hPa 0,0 l/m 0,0 km/h (0 Bft) SO 140 0 min 0 W/m -0,9 C 0,4 C 0,0 km/h (0 Bft)
11.12.2008 22:00 0,4 C 91 % 1012,5 hPa 0,0 l/m 0,0 km/h (0 Bft) SO 140 0 min 0 W/m -0,9 C 0,4 C 0,0 km/h (0 Bft)
11.12.2008 22:04 0,4 C 91 % 1012,5 hPa 0,0 l/m 0,0 km/h (0 Bft) SO 140 0 min 0 W/m -0,9 C 0,4 C 0,0 km/h (0 Bft)
11.12.2008 22:09 0,3 C 91 % 1012,5 hPa 0,0 l/m 0,0 km/h (0 Bft) SO 140 0 min 0 W/m -1,0 C 0,3 C 0,0 km/h (0 Bft)
11.12.2008 22:15 0,3 C 91 % 1012,5 hPa 0,0 l/m 0,0 km/h (0 Bft) SO 140 0 min 0 W/m -1,0 C 0,3 C 0,0 km/h (0 Bft)
11.12.2008 22:20 0,3 C 91 % 1012,5 hPa 0,0 l/m 0,0 km/h (0 Bft) SO 140 0 min 0 W/m -1,0 C 0,3 C 0,0 km/h (0 Bft)
11.12.2008 22:24 0,3 C 91 % 1012,5 hPa 0,0 l/m 0,0 km/h (0 Bft) SO 140 0 min 0 W/m -1,0 C 0,3 C 0,0 km/h (0 Bft)
11.12.2008 22:29 0,3 C 91 % 1012,5 hPa 0,0 l/m 0,0 km/h (0 Bft) SO 140 0 min 0 W/m -1,0 C 0,3 C 0,0 km/h (0 Bft)
11.12.2008 22:34 0,3 C 91 % 1013,5 hPa 0,0 l/m 0,0 km/h (0 Bft) SO 140 0 min 0 W/m -1,0 C 0,3 C 0,0 km/h (0 Bft)
11.12.2008 22:40 0,3 C 91 % 1013,5 hPa 0,0 l/m 0,0 km/h (0 Bft) SO 140 0 min 0 W/m -1,0 C 0,3 C 0,0 km/h (0 Bft)
11.12.2008 22:45 0,2 C 91 % 1013,5 hPa 0,0 l/m 0,0 km/h (0 Bft) SO 140 0 min 0 W/m -1,1 C 0,2 C 0,0 km/h (0 Bft)
11.12.2008 22:49 0,2 C 91 % 1012,5 hPa 0,0 l/m 0,0 km/h (0 Bft) SO 140 0 min 0 W/m -1,1 C 0,2 C 0,0 km/h (0 Bft)
11.12.2008 22:54 0,2 C 91 % 1012,5 hPa 0,0 l/m 0,0 km/h (0 Bft) SO 140 0 min 0 W/m -1,1 C 0,2 C 0,0 km/h (0 Bft)
11.12.2008 22:59 0,1 C 91 % 1012,5 hPa 0,0 l/m 0,0 km/h (0 Bft) SO 140 0 min 0 W/m -1,2 C 0,1 C 0,0 km/h (0 Bft)
11.12.2008 23:04 0,1 C 92 % 1012,5 hPa 0,0 l/m 0,0 km/h (0 Bft) SO 140 0 min 0 W/m -1,0 C 0,1 C 0,0 km/h (0 Bft)
11.12.2008 23:09 0,0 C 92 % 1012,5 hPa 0,0 l/m 0,0 km/h (0 Bft) SO 140 0 min 0 W/m -1,1 C 0,0 C 0,0 km/h (0 Bft)
11.12.2008 23:14 -0,2 C 92 % 1012,5 hPa 0,0 l/m 0,0 km/h (0 Bft) SO 140 0 min 0 W/m -1,3 C -0,2 C 0,0 km/h (0 Bft)
11.12.2008 23:19 -0,2 C 92 % 1012,5 hPa 0,0 l/m 0,0 km/h (0 Bft) SO 140 0 min 0 W/m -1,3 C -0,2 C 0,0 km/h (0 Bft)
11.12.2008 23:24 -0,3 C 92 % 1012,5 hPa 0,0 l/m 0,0 km/h (0 Bft) SO 140 0 min 0 W/m -1,4 C -0,3 C 0,0 km/h (0 Bft)
11.12.2008 23:30 -0,3 C 92 % 1012,5 hPa 0,0 l/m 0,0 km/h (0 Bft) SO 140 0 min 0 W/m -1,4 C -0,3 C 0,0 km/h (0 Bft)
11.12.2008 23:35 -0,4 C 92 % 1012,5 hPa 0,0 l/m 0,0 km/h (0 Bft) SO 140 0 min 0 W/m -1,5 C -0,4 C 0,0 km/h (0 Bft)
11.12.2008 23:39 -0,4 C 92 % 1012,5 hPa 0,0 l/m 0,0 km/h (0 Bft) SO 140 0 min 0 W/m -1,5 C -0,4 C 0,0 km/h (0 Bft)
11.12.2008 23:44 -0,4 C 92 % 1012,5 hPa 0,0 l/m 0,0 km/h (0 Bft) SO 140 0 min 0 W/m -1,5 C -0,4 C 0,0 km/h (0 Bft)
11.12.2008 23:45 -0,4 C 92 % 1012,5 hPa 0,0 l/m 0,0 km/h (0 Bft) SO 140 0 min 0 W/m -1,5 C -0,4 C 0,0 km/h (0 Bft)
11.12.2008 23:50 -0,5 C 92 % 1012,5 hPa 0,0 l/m 0,0 km/h (0 Bft) SO 140 0 min 0 W/m -1,6 C -0,5 C 0,0 km/h (0 Bft)
11.12.2008 23:55 -0,5 C 92 % 1012,5 hPa 0,0 l/m 0,0 km/h (0 Bft) SO 140 0 min 0 W/m -1,6 C -0,5 C 0,0 km/h (0 Bft)
11.12.2008 23:59 -0,5 C 92 % 1012,5 hPa 0,0 l/m 0,0 km/h (0 Bft) SO 140 0 min 0 W/m -1,6 C -0,5 C 0,0 km/h (0 Bft)
_ Min-Zeit 23:50 15:24 04:10 - 03:40 - - - - 23:50 06:15 03:40
Minimum _ -0,5 C 88 % 1010,5 hPa - 0,0 km/h (0 Bft) - - - - -1,6 C -6,8 C 0,0 km/h (0 Bft)
_ Max-Zeit 13:24 00:00 19:19 00:39 13:49 - - 00:00 00:00 13:24 13:14 13:49
Maximum _ 2,6 C 95 % 1013,5 hPa 0,3 l/m 18,9 km/h
S-SO (3 Bft)
- - 0 min 0 W/m 1,7 C 2,4 C 18,9 km/h
S-SO (3 Bft)
Durchschnitt _ 1,4 C 92 % 1012,1 hPa #0,3 l/m 6,9 km/h (2 Bft) S-SO - #0 min. 0 W/m 0,3 C -0,7 C 6,9 km/h (2 Bft)
copyright by Holger Just